sensor_id;sensor_type;location;lat;lon;timestamp;pressure;altitude;pressure_sealevel;temperature;humidity
24422;BME280;12600;53.326;-6.298;2023-02-13T00:01:44;102717.03;;;9.44;69.70
24422;BME280;12600;53.326;-6.298;2023-02-13T00:04:33;102713.22;;;9.45;69.56
24422;BME280;12600;53.326;-6.298;2023-02-13T00:07:22;102715.94;;;9.45;69.43
24422;BME280;12600;53.326;-6.298;2023-02-13T00:10:11;102708.78;;;9.39;70.01
24422;BME280;12600;53.326;-6.298;2023-02-13T00:13:01;102720.00;;;9.43;69.84
24422;BME280;12600;53.326;-6.298;2023-02-13T00:15:56;102707.63;;;9.35;69.95
24422;BME280;12600;53.326;-6.298;2023-02-13T00:18:46;102698.03;;;9.33;69.68
24422;BME280;12600;53.326;-6.298;2023-02-13T00:21:36;102707.06;;;9.33;69.78
24422;BME280;12600;53.326;-6.298;2023-02-13T00:24:25;102713.34;;;9.34;69.63
24422;BME280;12600;53.326;-6.298;2023-02-13T00:27:14;102709.22;;;9.31;70.00
24422;BME280;12600;53.326;-6.298;2023-02-13T00:30:05;102711.03;;;9.25;70.50
24422;BME280;12600;53.326;-6.298;2023-02-13T00:32:56;102704.50;;;9.27;71.02
24422;BME280;12600;53.326;-6.298;2023-02-13T00:35:45;102704.75;;;9.25;70.79
24422;BME280;12600;53.326;-6.298;2023-02-13T00:38:35;102709.44;;;9.30;70.95
24422;BME280;12600;53.326;-6.298;2023-02-13T00:41:25;102708.97;;;9.33;70.73
24422;BME280;12600;53.326;-6.298;2023-02-13T00:44:14;102705.16;;;9.34;70.64
24422;BME280;12600;53.326;-6.298;2023-02-13T00:47:03;102697.63;;;9.41;70.64
24422;BME280;12600;53.326;-6.298;2023-02-13T00:49:54;102708.59;;;9.46;70.51
24422;BME280;12600;53.326;-6.298;2023-02-13T00:52:43;102695.19;;;9.44;70.27
24422;BME280;12600;53.326;-6.298;2023-02-13T00:55:33;102692.00;;;9.47;70.49
24422;BME280;12600;53.326;-6.298;2023-02-13T00:58:23;102699.16;;;9.53;70.40
24422;BME280;12600;53.326;-6.298;2023-02-13T01:01:12;102693.94;;;9.52;70.71
24422;BME280;12600;53.326;-6.298;2023-02-13T01:04:02;102689.81;;;9.49;70.83
24422;BME280;12600;53.326;-6.298;2023-02-13T01:06:53;102707.50;;;9.64;70.77
24422;BME280;12600;53.326;-6.298;2023-02-13T01:09:42;102708.06;;;9.66;70.78
24422;BME280;12600;53.326;-6.298;2023-02-13T01:12:31;102708.69;;;9.73;70.77
24422;BME280;12600;53.326;-6.298;2023-02-13T01:15:21;102694.28;;;9.77;70.48
24422;BME280;12600;53.326;-6.298;2023-02-13T01:18:12;102692.97;;;9.80;70.09
24422;BME280;12600;53.326;-6.298;2023-02-13T01:21:05;102697.34;;;9.81;70.26
24422;BME280;12600;53.326;-6.298;2023-02-13T01:23:56;102688.59;;;9.79;70.12
24422;BME280;12600;53.326;-6.298;2023-02-13T01:26:45;102684.41;;;9.71;70.41
24422;BME280;12600;53.326;-6.298;2023-02-13T01:29:34;102692.63;;;9.76;69.99
24422;BME280;12600;53.326;-6.298;2023-02-13T01:32:24;102678.03;;;9.66;70.21
24422;BME280;12600;53.326;-6.298;2023-02-13T01:35:14;102677.94;;;9.61;70.35
24422;BME280;12600;53.326;-6.298;2023-02-13T01:38:03;102685.41;;;9.65;69.91
24422;BME280;12600;53.326;-6.298;2023-02-13T01:40:54;102681.78;;;9.60;70.17
24422;BME280;12600;53.326;-6.298;2023-02-13T01:43:47;102679.81;;;9.55;70.22
24422;BME280;12600;53.326;-6.298;2023-02-13T01:46:39;102675.19;;;9.56;70.09
24422;BME280;12600;53.326;-6.298;2023-02-13T01:49:29;102677.91;;;9.56;70.09
24422;BME280;12600;53.326;-6.298;2023-02-13T01:52:20;102683.41;;;9.61;69.70
24422;BME280;12600;53.326;-6.298;2023-02-13T01:55:10;102673.00;;;9.58;69.48
24422;BME280;12600;53.326;-6.298;2023-02-13T01:58:07;102671.63;;;9.55;69.50
24422;BME280;12600;53.326;-6.298;2023-02-13T02:00:58;102671.53;;;9.50;69.45
24422;BME280;12600;53.326;-6.298;2023-02-13T02:03:54;102660.81;;;9.43;69.26
24422;BME280;12600;53.326;-6.298;2023-02-13T02:06:55;102659.91;;;9.38;69.32
24422;BME280;12600;53.326;-6.298;2023-02-13T02:09:53;102667.25;;;9.37;69.67
24422;BME280;12600;53.326;-6.298;2023-02-13T02:12:49;102671.25;;;9.30;69.98
24422;BME280;12600;53.326;-6.298;2023-02-13T02:15:42;102667.69;;;9.29;69.82
24422;BME280;12600;53.326;-6.298;2023-02-13T02:18:31;102670.13;;;9.25;69.47
24422;BME280;12600;53.326;-6.298;2023-02-13T02:21:45;102670.84;;;9.21;69.47
24422;BME280;12600;53.326;-6.298;2023-02-13T02:25:16;102663.69;;;9.15;69.43
24422;BME280;12600;53.326;-6.298;2023-02-13T02:28:30;102656.09;;;9.00;69.38
24422;BME280;12600;53.326;-6.298;2023-02-13T02:32:21;102650.00;;;8.93;69.61
24422;BME280;12600;53.326;-6.298;2023-02-13T02:35:21;102661.88;;;8.87;69.13
24422;BME280;12600;53.326;-6.298;2023-02-13T02:38:25;102649.25;;;8.81;69.30
24422;BME280;12600;53.326;-6.298;2023-02-13T02:41:26;102653.72;;;8.70;69.50
24422;BME280;12600;53.326;-6.298;2023-02-13T02:44:42;102639.94;;;8.60;69.50
24422;BME280;12600;53.326;-6.298;2023-02-13T02:47:45;102641.72;;;8.54;70.20
24422;BME280;12600;53.326;-6.298;2023-02-13T02:51:01;102642.81;;;8.53;70.03
24422;BME280;12600;53.326;-6.298;2023-02-13T02:54:04;102629.91;;;8.49;70.32
24422;BME280;12600;53.326;-6.298;2023-02-13T02:57:20;102630.41;;;8.46;70.03
24422;BME280;12600;53.326;-6.298;2023-02-13T03:00:19;102635.88;;;8.46;70.13
24422;BME280;12600;53.326;-6.298;2023-02-13T03:03:29;102621.13;;;8.30;70.42
24422;BME280;12600;53.326;-6.298;2023-02-13T03:06:39;102631.69;;;8.26;70.04
24422;BME280;12600;53.326;-6.298;2023-02-13T03:09:38;102620.69;;;8.21;70.47
24422;BME280;12600;53.326;-6.298;2023-02-13T03:12:48;102627.47;;;8.19;70.10
24422;BME280;12600;53.326;-6.298;2023-02-13T03:15:58;102630.91;;;8.14;70.74
24422;BME280;12600;53.326;-6.298;2023-02-13T03:19:13;102635.78;;;8.12;70.66
24422;BME280;12600;53.326;-6.298;2023-02-13T03:22:33;102617.00;;;7.99;70.52
24422;BME280;12600;53.326;-6.298;2023-02-13T03:25:30;102615.88;;;7.95;70.74
24422;BME280;12600;53.326;-6.298;2023-02-13T03:28:30;102619.63;;;7.94;70.75
24422;BME280;12600;53.326;-6.298;2023-02-13T03:31:51;102612.22;;;7.89;71.63
24422;BME280;12600;53.326;-6.298;2023-02-13T03:35:13;102606.63;;;7.96;72.71
24422;BME280;12600;53.326;-6.298;2023-02-13T03:38:26;102599.84;;;7.98;71.84
24422;BME280;12600;53.326;-6.298;2023-02-13T03:41:21;102618.47;;;8.18;73.13
24422;BME280;12600;53.326;-6.298;2023-02-13T03:44:19;102605.28;;;8.27;72.86
24422;BME280;12600;53.326;-6.298;2023-02-13T03:47:11;102610.56;;;8.33;73.40
24422;BME280;12600;53.326;-6.298;2023-02-13T03:50:05;102604.09;;;8.23;72.48
24422;BME280;12600;53.326;-6.298;2023-02-13T03:53:00;102620.03;;;8.14;72.78
24422;BME280;12600;53.326;-6.298;2023-02-13T03:55:51;102618.84;;;8.10;72.87
24422;BME280;12600;53.326;-6.298;2023-02-13T03:59:00;102609.78;;;8.04;72.31
24422;BME280;12600;53.326;-6.298;2023-02-13T04:02:11;102609.09;;;7.97;72.59
24422;BME280;12600;53.326;-6.298;2023-02-13T04:05:10;102605.19;;;7.93;72.27
24422;BME280;12600;53.326;-6.298;2023-02-13T04:08:02;102602.28;;;7.83;72.54
24422;BME280;12600;53.326;-6.298;2023-02-13T04:10:56;102601.13;;;7.79;72.38
24422;BME280;12600;53.326;-6.298;2023-02-13T04:13:52;102600.78;;;7.75;72.48
24422;BME280;12600;53.326;-6.298;2023-02-13T04:16:47;102597.97;;;7.70;72.51
24422;BME280;12600;53.326;-6.298;2023-02-13T04:19:38;102599.75;;;7.65;72.53
24422;BME280;12600;53.326;-6.298;2023-02-13T04:22:29;102599.41;;;7.61;72.27
24422;BME280;12600;53.326;-6.298;2023-02-13T04:25:19;102581.81;;;7.52;71.72
24422;BME280;12600;53.326;-6.298;2023-02-13T04:28:08;102593.75;;;7.51;72.42
24422;BME280;12600;53.326;-6.298;2023-02-13T04:30:58;102584.44;;;7.47;72.59
24422;BME280;12600;53.326;-6.298;2023-02-13T04:33:48;102583.75;;;7.40;72.59
24422;BME280;12600;53.326;-6.298;2023-02-13T04:36:37;102588.50;;;7.33;72.68
24422;BME280;12600;53.326;-6.298;2023-02-13T04:39:28;102586.25;;;7.29;72.99
24422;BME280;12600;53.326;-6.298;2023-02-13T04:42:17;102577.88;;;7.19;73.05
24422;BME280;12600;53.326;-6.298;2023-02-13T04:45:07;102585.19;;;7.19;73.26
24422;BME280;12600;53.326;-6.298;2023-02-13T04:47:57;102585.44;;;7.17;73.34
24422;BME280;12600;53.326;-6.298;2023-02-13T04:50:46;102578.47;;;7.10;73.16
24422;BME280;12600;53.326;-6.298;2023-02-13T04:53:36;102586.31;;;7.06;73.53
24422;BME280;12600;53.326;-6.298;2023-02-13T04:56:26;102576.47;;;7.05;73.56
24422;BME280;12600;53.326;-6.298;2023-02-13T04:59:16;102590.19;;;7.10;73.76
24422;BME280;12600;53.326;-6.298;2023-02-13T05:02:05;102596.19;;;7.12;73.14
24422;BME280;12600;53.326;-6.298;2023-02-13T05:04:54;102597.19;;;7.06;73.38
24422;BME280;12600;53.326;-6.298;2023-02-13T05:07:44;102599.28;;;7.04;73.55
24422;BME280;12600;53.326;-6.298;2023-02-13T05:10:33;102598.69;;;7.02;73.50
24422;BME280;12600;53.326;-6.298;2023-02-13T05:13:24;102601.91;;;6.99;74.24
24422;BME280;12600;53.326;-6.298;2023-02-13T05:16:13;102602.00;;;7.04;74.51
24422;BME280;12600;53.326;-6.298;2023-02-13T05:19:03;102599.97;;;7.11;74.96
24422;BME280;12600;53.326;-6.298;2023-02-13T05:21:52;102580.97;;;7.11;75.90
24422;BME280;12600;53.326;-6.298;2023-02-13T05:24:59;102589.81;;;7.30;76.57
24422;BME280;12600;53.326;-6.298;2023-02-13T05:27:48;102585.84;;;7.49;77.18
24422;BME280;12600;53.326;-6.298;2023-02-13T05:30:39;102591.50;;;7.60;76.26
24422;BME280;12600;53.326;-6.298;2023-02-13T05:33:28;102586.59;;;7.73;76.49
24422;BME280;12600;53.326;-6.298;2023-02-13T05:36:17;102578.03;;;7.81;77.34
24422;BME280;12600;53.326;-6.298;2023-02-13T05:39:08;102579.81;;;7.88;77.59
24422;BME280;12600;53.326;-6.298;2023-02-13T05:41:57;102573.34;;;7.94;76.93
24422;BME280;12600;53.326;-6.298;2023-02-13T05:44:47;102565.41;;;8.04;77.42
24422;BME280;12600;53.326;-6.298;2023-02-13T05:47:37;102564.19;;;8.11;77.26
24422;BME280;12600;53.326;-6.298;2023-02-13T05:50:27;102549.25;;;8.14;76.80
24422;BME280;12600;53.326;-6.298;2023-02-13T05:53:16;102556.28;;;8.27;76.79
24422;BME280;12600;53.326;-6.298;2023-02-13T05:56:06;102568.44;;;8.36;76.36
24422;BME280;12600;53.326;-6.298;2023-02-13T05:58:56;102556.34;;;8.32;76.38
24422;BME280;12600;53.326;-6.298;2023-02-13T06:01:45;102572.28;;;8.40;76.42
24422;BME280;12600;53.326;-6.298;2023-02-13T06:04:36;102559.50;;;8.40;76.61
24422;BME280;12600;53.326;-6.298;2023-02-13T06:07:26;102547.34;;;8.31;76.65
24422;BME280;12600;53.326;-6.298;2023-02-13T06:10:15;102544.81;;;8.41;76.61
24422;BME280;12600;53.326;-6.298;2023-02-13T06:13:05;102542.69;;;8.44;76.70
24422;BME280;12600;53.326;-6.298;2023-02-13T06:15:54;102547.06;;;8.45;76.82
24422;BME280;12600;53.326;-6.298;2023-02-13T06:18:44;102545.41;;;8.44;76.93
24422;BME280;12600;53.326;-6.298;2023-02-13T06:21:35;102534.50;;;8.44;76.60
24422;BME280;12600;53.326;-6.298;2023-02-13T06:24:25;102538.53;;;8.41;76.72
24422;BME280;12600;53.326;-6.298;2023-02-13T06:27:14;102538.31;;;8.43;76.39
24422;BME280;12600;53.326;-6.298;2023-02-13T06:30:05;102542.91;;;8.42;76.51
24422;BME280;12600;53.326;-6.298;2023-02-13T06:32:54;102546.72;;;8.41;76.65
24422;BME280;12600;53.326;-6.298;2023-02-13T06:35:44;102542.44;;;8.45;76.42
24422;BME280;12600;53.326;-6.298;2023-02-13T06:38:34;102542.44;;;8.45;76.62
24422;BME280;12600;53.326;-6.298;2023-02-13T06:41:24;102532.00;;;8.42;76.64
24422;BME280;12600;53.326;-6.298;2023-02-13T06:44:13;102528.25;;;8.43;76.81
24422;BME280;12600;53.326;-6.298;2023-02-13T06:47:02;102539.34;;;8.41;76.89
24422;BME280;12600;53.326;-6.298;2023-02-13T06:49:51;102545.88;;;8.40;76.80
24422;BME280;12600;53.326;-6.298;2023-02-13T06:52:45;102536.19;;;8.33;76.92
24422;BME280;12600;53.326;-6.298;2023-02-13T06:55:37;102546.47;;;8.43;76.23
24422;BME280;12600;53.326;-6.298;2023-02-13T06:58:26;102542.03;;;8.36;76.13
24422;BME280;12600;53.326;-6.298;2023-02-13T07:01:16;102548.53;;;8.35;76.14
24422;BME280;12600;53.326;-6.298;2023-02-13T07:04:05;102538.34;;;8.31;75.63
24422;BME280;12600;53.326;-6.298;2023-02-13T07:06:54;102546.19;;;8.27;76.13
24422;BME280;12600;53.326;-6.298;2023-02-13T07:09:44;102539.25;;;8.20;76.13
24422;BME280;12600;53.326;-6.298;2023-02-13T07:12:36;102538.66;;;8.18;75.79
24422;BME280;12600;53.326;-6.298;2023-02-13T07:15:25;102530.91;;;8.09;76.26
24422;BME280;12600;53.326;-6.298;2023-02-13T07:18:15;102542.72;;;8.15;76.14
24422;BME280;12600;53.326;-6.298;2023-02-13T07:21:04;102545.59;;;8.08;75.99
24422;BME280;12600;53.326;-6.298;2023-02-13T07:23:54;102548.56;;;8.07;76.16
24422;BME280;12600;53.326;-6.298;2023-02-13T07:26:43;102544.75;;;8.08;75.81
24422;BME280;12600;53.326;-6.298;2023-02-13T07:29:34;102536.19;;;7.99;76.05
24422;BME280;12600;53.326;-6.298;2023-02-13T07:32:24;102547.81;;;7.95;76.19
24422;BME280;12600;53.326;-6.298;2023-02-13T07:35:13;102537.09;;;7.88;76.05
24422;BME280;12600;53.326;-6.298;2023-02-13T07:38:03;102546.53;;;7.85;75.61
24422;BME280;12600;53.326;-6.298;2023-02-13T07:40:53;102549.91;;;7.76;75.76
24422;BME280;12600;53.326;-6.298;2023-02-13T07:43:42;102544.84;;;7.68;75.38
24422;BME280;12600;53.326;-6.298;2023-02-13T07:46:33;102538.72;;;7.61;75.46
24422;BME280;12600;53.326;-6.298;2023-02-13T07:49:22;102546.31;;;7.58;75.74
24422;BME280;12600;53.326;-6.298;2023-02-13T07:52:12;102549.66;;;7.49;75.83
24422;BME280;12600;53.326;-6.298;2023-02-13T07:55:01;102547.91;;;7.43;76.16
24422;BME280;12600;53.326;-6.298;2023-02-13T07:57:51;102554.38;;;7.53;76.61
24422;BME280;12600;53.326;-6.298;2023-02-13T08:00:40;102550.94;;;7.58;76.80
24422;BME280;12600;53.326;-6.298;2023-02-13T08:03:31;102563.81;;;7.63;76.38
24422;BME280;12600;53.326;-6.298;2023-02-13T08:06:21;102556.22;;;7.65;76.96
24422;BME280;12600;53.326;-6.298;2023-02-13T08:09:18;102575.97;;;7.72;77.38
24422;BME280;12600;53.326;-6.298;2023-02-13T08:12:28;102570.97;;;7.80;76.41
24422;BME280;12600;53.326;-6.298;2023-02-13T08:15:18;102546.50;;;7.69;76.79
24422;BME280;12600;53.326;-6.298;2023-02-13T08:18:07;102567.16;;;7.81;76.66
24422;BME280;12600;53.326;-6.298;2023-02-13T08:20:58;102580.88;;;7.87;76.73
24422;BME280;12600;53.326;-6.298;2023-02-13T08:23:49;102578.47;;;7.90;76.06
24422;BME280;12600;53.326;-6.298;2023-02-13T08:26:39;102570.97;;;7.80;77.09
24422;BME280;12600;53.326;-6.298;2023-02-13T08:29:28;102563.53;;;7.93;77.58
24422;BME280;12600;53.326;-6.298;2023-02-13T08:32:17;102574.25;;;8.11;76.92
24422;BME280;12600;53.326;-6.298;2023-02-13T08:35:07;102568.00;;;8.27;77.04
24422;BME280;12600;53.326;-6.298;2023-02-13T08:38:01;102569.09;;;8.43;76.61
24422;BME280;12600;53.326;-6.298;2023-02-13T08:40:51;102581.22;;;8.52;75.95
24422;BME280;12600;53.326;-6.298;2023-02-13T08:43:40;102575.78;;;8.52;76.00
24422;BME280;12600;53.326;-6.298;2023-02-13T08:46:30;102576.34;;;8.54;75.98
24422;BME280;12600;53.326;-6.298;2023-02-13T08:49:19;102579.31;;;8.53;76.29
24422;BME280;12600;53.326;-6.298;2023-02-13T08:52:10;102580.31;;;8.63;75.91
24422;BME280;12600;53.326;-6.298;2023-02-13T08:55:00;102580.72;;;8.72;76.17
24422;BME280;12600;53.326;-6.298;2023-02-13T08:57:51;102580.69;;;8.89;76.17
24422;BME280;12600;53.326;-6.298;2023-02-13T09:00:40;102576.13;;;8.94;75.44
24422;BME280;12600;53.326;-6.298;2023-02-13T09:03:29;102575.41;;;8.99;75.03
24422;BME280;12600;53.326;-6.298;2023-02-13T09:06:18;102579.97;;;9.15;74.87
24422;BME280;12600;53.326;-6.298;2023-02-13T09:09:08;102586.47;;;9.31;74.39
24422;BME280;12600;53.326;-6.298;2023-02-13T09:11:59;102586.03;;;9.39;74.28
24422;BME280;12600;53.326;-6.298;2023-02-13T09:14:49;102568.03;;;9.43;73.89
24422;BME280;12600;53.326;-6.298;2023-02-13T09:17:39;102590.22;;;9.47;73.36
24422;BME280;12600;53.326;-6.298;2023-02-13T09:20:28;102583.72;;;9.53;73.22
24422;BME280;12600;53.326;-6.298;2023-02-13T09:23:17;102574.78;;;9.58;71.82
24422;BME280;12600;53.326;-6.298;2023-02-13T09:26:10;102572.47;;;9.71;71.54
24422;BME280;12600;53.326;-6.298;2023-02-13T09:29:01;102579.84;;;9.71;71.57
24422;BME280;12600;53.326;-6.298;2023-02-13T09:31:50;102573.88;;;9.74;71.31
24422;BME280;12600;53.326;-6.298;2023-02-13T09:34:40;102579.69;;;9.82;71.13
24422;BME280;12600;53.326;-6.298;2023-02-13T09:37:29;102577.53;;;9.85;71.21
24422;BME280;12600;53.326;-6.298;2023-02-13T09:40:24;102581.06;;;9.85;70.78
24422;BME280;12600;53.326;-6.298;2023-02-13T09:43:21;102575.88;;;9.84;70.12
24422;BME280;12600;53.326;-6.298;2023-02-13T09:46:19;102570.16;;;9.85;69.72
24422;BME280;12600;53.326;-6.298;2023-02-13T09:49:14;102565.31;;;9.92;69.88
24422;BME280;12600;53.326;-6.298;2023-02-13T09:52:06;102562.09;;;9.95;69.31
24422;BME280;12600;53.326;-6.298;2023-02-13T09:54:57;102566.75;;;10.00;69.26
24422;BME280;12600;53.326;-6.298;2023-02-13T09:57:53;102563.75;;;10.01;69.50
24422;BME280;12600;53.326;-6.298;2023-02-13T10:00:48;102574.19;;;10.04;68.58
24422;BME280;12600;53.326;-6.298;2023-02-13T10:03:44;102569.75;;;9.98;68.31
24422;BME280;12600;53.326;-6.298;2023-02-13T10:06:39;102576.59;;;10.01;68.12
24422;BME280;12600;53.326;-6.298;2023-02-13T10:09:43;102584.31;;;10.09;67.52
24422;BME280;12600;53.326;-6.298;2023-02-13T10:13:06;102572.63;;;10.14;67.59
24422;BME280;12600;53.326;-6.298;2023-02-13T10:16:07;102578.63;;;10.11;67.49
24422;BME280;12600;53.326;-6.298;2023-02-13T10:19:03;102572.53;;;10.03;67.29
24422;BME280;12600;53.326;-6.298;2023-02-13T10:21:59;102580.00;;;10.13;67.32
24422;BME280;12600;53.326;-6.298;2023-02-13T10:24:53;102574.66;;;10.23;67.08
24422;BME280;12600;53.326;-6.298;2023-02-13T10:27:48;102572.25;;;10.27;67.35
24422;BME280;12600;53.326;-6.298;2023-02-13T10:30:50;102576.66;;;10.33;67.48
24422;BME280;12600;53.326;-6.298;2023-02-13T10:33:46;102573.19;;;10.43;67.47
24422;BME280;12600;53.326;-6.298;2023-02-13T10:36:42;102578.91;;;10.41;67.46
24422;BME280;12600;53.326;-6.298;2023-02-13T10:39:32;102577.91;;;10.52;67.23
24422;BME280;12600;53.326;-6.298;2023-02-13T10:42:26;102572.41;;;10.47;67.38
24422;BME280;12600;53.326;-6.298;2023-02-13T10:45:43;102580.50;;;10.69;67.11
24422;BME280;12600;53.326;-6.298;2023-02-13T10:48:54;102577.50;;;10.71;66.97
24422;BME280;12600;53.326;-6.298;2023-02-13T10:51:57;102590.66;;;10.79;67.02
24422;BME280;12600;53.326;-6.298;2023-02-13T10:55:04;102565.97;;;10.63;66.47
24422;BME280;12600;53.326;-6.298;2023-02-13T10:58:06;102575.31;;;10.73;66.38
24422;BME280;12600;53.326;-6.298;2023-02-13T11:01:01;102570.34;;;10.64;66.21
24422;BME280;12600;53.326;-6.298;2023-02-13T11:04:07;102580.56;;;10.79;66.48
24422;BME280;12600;53.326;-6.298;2023-02-13T11:06:59;102582.03;;;10.92;66.27
24422;BME280;12600;53.326;-6.298;2023-02-13T11:09:49;102574.97;;;11.06;66.03
24422;BME280;12600;53.326;-6.298;2023-02-13T11:12:40;102574.53;;;11.25;66.75
24422;BME280;12600;53.326;-6.298;2023-02-13T11:15:31;102581.25;;;11.64;67.90
24422;BME280;12600;53.326;-6.298;2023-02-13T11:18:21;102566.06;;;12.40;67.99
24422;BME280;12600;53.326;-6.298;2023-02-13T11:21:19;102572.94;;;13.53;67.53
24422;BME280;12600;53.326;-6.298;2023-02-13T11:24:17;102564.53;;;14.22;63.41
24422;BME280;12600;53.326;-6.298;2023-02-13T11:27:09;102564.63;;;14.99;62.70
24422;BME280;12600;53.326;-6.298;2023-02-13T11:30:05;102563.34;;;15.39;59.46
24422;BME280;12600;53.326;-6.298;2023-02-13T11:32:59;102550.09;;;15.84;55.63
24422;BME280;12600;53.326;-6.298;2023-02-13T11:35:48;102563.31;;;16.20;51.83
24422;BME280;12600;53.326;-6.298;2023-02-13T11:38:38;102541.06;;;16.63;50.57
24422;BME280;12600;53.326;-6.298;2023-02-13T11:41:30;102542.25;;;17.17;50.53
24422;BME280;12600;53.326;-6.298;2023-02-13T11:44:26;102533.78;;;17.63;48.41
24422;BME280;12600;53.326;-6.298;2023-02-13T11:47:16;102543.03;;;18.17;49.27
24422;BME280;12600;53.326;-6.298;2023-02-13T11:50:24;102537.75;;;18.60;46.77
24422;BME280;12600;53.326;-6.298;2023-02-13T11:53:19;102533.69;;;18.58;43.42
24422;BME280;12600;53.326;-6.298;2023-02-13T11:56:12;102530.63;;;18.99;44.00
24422;BME280;12600;53.326;-6.298;2023-02-13T11:59:03;102526.16;;;19.29;41.73
24422;BME280;12600;53.326;-6.298;2023-02-13T12:02:12;102486.91;;;19.36;40.97
24422;BME280;12600;53.326;-6.298;2023-02-13T12:05:18;102514.00;;;19.65;39.99
24422;BME280;12600;53.326;-6.298;2023-02-13T12:08:08;102523.66;;;19.93;39.94
24422;BME280;12600;53.326;-6.298;2023-02-13T12:10:58;102513.66;;;20.09;39.86
24422;BME280;12600;53.326;-6.298;2023-02-13T12:13:51;102510.34;;;20.33;39.23
24422;BME280;12600;53.326;-6.298;2023-02-13T12:16:45;102508.13;;;20.74;38.37
24422;BME280;12600;53.326;-6.298;2023-02-13T12:19:41;102510.66;;;21.26;38.44
24422;BME280;12600;53.326;-6.298;2023-02-13T12:22:38;102509.19;;;21.70;37.89
24422;BME280;12600;53.326;-6.298;2023-02-13T12:25:47;102507.41;;;22.07;35.47
24422;BME280;12600;53.326;-6.298;2023-02-13T12:29:07;102503.31;;;22.04;34.93
24422;BME280;12600;53.326;-6.298;2023-02-13T12:32:16;102488.81;;;21.99;34.78
24422;BME280;12600;53.326;-6.298;2023-02-13T12:35:33;102485.78;;;21.92;34.36
24422;BME280;12600;53.326;-6.298;2023-02-13T12:38:42;102479.56;;;22.07;34.93
24422;BME280;12600;53.326;-6.298;2023-02-13T12:41:42;102482.28;;;22.16;34.22
24422;BME280;12600;53.326;-6.298;2023-02-13T12:44:52;102474.03;;;22.19;34.61
24422;BME280;12600;53.326;-6.298;2023-02-13T12:48:02;102468.81;;;22.18;33.37
24422;BME280;12600;53.326;-6.298;2023-02-13T12:51:05;102468.13;;;22.21;33.38
24422;BME280;12600;53.326;-6.298;2023-02-13T12:54:27;102468.03;;;22.29;33.76
24422;BME280;12600;53.326;-6.298;2023-02-13T12:57:38;102456.19;;;22.20;33.12
24422;BME280;12600;53.326;-6.298;2023-02-13T13:00:40;102456.81;;;22.05;33.24
24422;BME280;12600;53.326;-6.298;2023-02-13T13:03:45;102464.66;;;21.91;33.07
24422;BME280;12600;53.326;-6.298;2023-02-13T13:06:56;102457.84;;;21.67;33.15
24422;BME280;12600;53.326;-6.298;2023-02-13T13:16:26;102440.41;;;20.57;35.66
24422;BME280;12600;53.326;-6.298;2023-02-13T13:19:29;102440.56;;;20.05;35.53
24422;BME280;12600;53.326;-6.298;2023-02-13T13:22:26;102432.94;;;19.68;36.55
24422;BME280;12600;53.326;-6.298;2023-02-13T13:25:24;102432.41;;;19.40;37.04
24422;BME280;12600;53.326;-6.298;2023-02-13T13:28:18;102432.59;;;19.35;37.47
24422;BME280;12600;53.326;-6.298;2023-02-13T13:31:10;102429.16;;;19.29;37.24
24422;BME280;12600;53.326;-6.298;2023-02-13T13:34:14;102410.56;;;19.38;37.13
24422;BME280;12600;53.326;-6.298;2023-02-13T13:37:15;102418.75;;;19.43;36.99
24422;BME280;12600;53.326;-6.298;2023-02-13T13:40:25;102410.44;;;19.43;37.10
24422;BME280;12600;53.326;-6.298;2023-02-13T13:43:23;102409.09;;;19.23;37.48
24422;BME280;12600;53.326;-6.298;2023-02-13T13:46:23;102398.00;;;18.89;38.01
24422;BME280;12600;53.326;-6.298;2023-02-13T13:49:36;102401.13;;;18.56;38.80
24422;BME280;12600;53.326;-6.298;2023-02-13T13:52:32;102398.47;;;18.42;39.30
24422;BME280;12600;53.326;-6.298;2023-02-13T13:56:00;102395.94;;;18.15;39.04
24422;BME280;12600;53.326;-6.298;2023-02-13T13:58:51;102396.53;;;18.12;39.50
24422;BME280;12600;53.326;-6.298;2023-02-13T14:01:41;102401.47;;;18.15;39.63
24422;BME280;12600;53.326;-6.298;2023-02-13T14:04:38;102392.19;;;17.88;40.37
24422;BME280;12600;53.326;-6.298;2023-02-13T14:07:37;102389.19;;;17.76;40.83
24422;BME280;12600;53.326;-6.298;2023-02-13T14:11:05;102384.59;;;17.72;41.29
24422;BME280;12600;53.326;-6.298;2023-02-13T14:13:54;102385.16;;;17.60;41.70
24422;BME280;12600;53.326;-6.298;2023-02-13T14:16:45;102366.56;;;17.52;41.56
24422;BME280;12600;53.326;-6.298;2023-02-13T14:19:37;102374.91;;;17.60;41.94
24422;BME280;12600;53.326;-6.298;2023-02-13T14:22:35;102371.31;;;17.74;41.96
24422;BME280;12600;53.326;-6.298;2023-02-13T14:25:27;102365.66;;;17.87;42.10
24422;BME280;12600;53.326;-6.298;2023-02-13T14:28:24;102367.50;;;17.92;41.21
24422;BME280;12600;53.326;-6.298;2023-02-13T14:31:21;102357.75;;;17.95;41.21
24422;BME280;12600;53.326;-6.298;2023-02-13T14:34:19;102376.97;;;18.00;41.27
24422;BME280;12600;53.326;-6.298;2023-02-13T14:37:19;102353.84;;;17.96;41.21
24422;BME280;12600;53.326;-6.298;2023-02-13T14:40:53;102358.34;;;18.14;41.28
24422;BME280;12600;53.326;-6.298;2023-02-13T14:43:49;102356.25;;;18.28;41.32
24422;BME280;12600;53.326;-6.298;2023-02-13T14:46:40;102346.38;;;18.44;41.13
24422;BME280;12600;53.326;-6.298;2023-02-13T14:49:37;102350.50;;;18.56;40.35
24422;BME280;12600;53.326;-6.298;2023-02-13T14:52:34;102348.94;;;18.72;40.75
24422;BME280;12600;53.326;-6.298;2023-02-13T14:55:32;102358.06;;;18.90;40.50
24422;BME280;12600;53.326;-6.298;2023-02-13T14:58:28;102351.56;;;19.03;39.93
24422;BME280;12600;53.326;-6.298;2023-02-13T15:01:30;102350.91;;;19.15;39.75
24422;BME280;12600;53.326;-6.298;2023-02-13T15:04:27;102350.59;;;19.08;38.39
24422;BME280;12600;53.326;-6.298;2023-02-13T15:07:22;102348.81;;;18.94;37.24
24422;BME280;12600;53.326;-6.298;2023-02-13T15:10:33;102349.28;;;18.96;37.72
24422;BME280;12600;53.326;-6.298;2023-02-13T15:13:33;102341.97;;;19.09;37.19
24422;BME280;12600;53.326;-6.298;2023-02-13T15:16:22;102341.28;;;19.29;38.03
24422;BME280;12600;53.326;-6.298;2023-02-13T15:19:16;102342.44;;;19.37;37.76